Flight Track Log - Related Links

Times and Time Zones

All times are in EDT time to prevent confusion due to time zone crossing. See the UPS2876 flight status page for this flight to view local times or setup timezone preferences in your user account.

Time Position Orientation Groundspeed Altitude Reporting Facility
EDT Latitude Longitude Course Direction KTS MPH feet Rate Location/Type
Mon 04:41:00 PM 38.1740 -85.7420 278° West 22 25  Level FlightAware ADS-B
Mon 04:41:23 PM 38.1740 -85.7430 270° West 21 24 102 Level FlightAware ADS-B
Mon 04:42:16 PM 38.1760 -85.7440 339° North 31 36 111 Level FlightAware ADS-B
Mon 04:43:03 PM 38.1800 -85.7450 349° North 18 21 138 Level FlightAware ADS-B
Mon 04:43:31 PM 38.1820 -85.7460 339° North 19 22 176 Level FlightAware ADS-B
Mon 04:43:59 PM 38.1840 -85.7460 360° North 30 35 211 Level FlightAware ADS-B
Mon 04:44:15 PM 38.1850 -85.7470 322° Northwest 11 13 263 Level FlightAware ADS-B
Mon 04:45:23 PM 38.1830 -85.7470 180° South 48 55 306 Level FlightAware ADS-B
Mon 04:45:53 PM 38.1670 -85.7420 166° South 162 186 500 1,929 Climbing FlightAware ADS-B
Mon 04:46:19 PM 38.1470 -85.7350 165° South 163 188 1,800 2,160 Climbing FlightAware ADS-B
Mon 04:46:43 PM 38.1280 -85.7320 173° South 191 220 2,300 1,500 Climbing FlightAware ADS-B
Mon 04:47:15 PM 38.0960 -85.7340 183° South 226 260 3,200 2,000 Climbing FlightAware ADS-B
Mon 04:47:31 PM 38.0810 -85.7420 203° Southwest 231 266 3,900 2,143 Climbing FlightAware ADS-B
Mon 04:47:43 PM 38.0720 -85.7560 231° Southwest 249 287 4,200 1,615 Climbing FlightAware ADS-B
Mon 04:47:57 PM 38.0690 -85.7770 260° West 264 304 4,600 2,455 Climbing FlightAware ADS-B
Mon 04:48:27 PM 38.0730 -85.8240 276° West 270 311 6,000 3,000 Climbing FlightAware ADS-B
Mon 04:48:53 PM 38.0750 -85.8650 274° West 273 314 7,400 3,000 Climbing FlightAware ADS-B
Mon 04:49:05 PM 38.0750 -85.8840 270° West 277 319 7,900 2,714 Climbing FlightAware ADS-B
Mon 04:49:35 PM 38.0730 -85.9340 267° West 287 330 9,300 2,455 Climbing FlightAware ADS-B
Mon 04:49:49 PM 38.0670 -85.9560 251° West 290 334 9,700 1,909 Climbing FlightAware ADS-B
Mon 04:50:19 PM 38.0480 -86.0000 241° Southwest 304 350 10,700 1,833 Climbing FlightAware ADS-B
Mon 04:51:01 PM 38.0410 -86.0840 264° West 352 405 11,900 2,203 Climbing FlightAware ADS-B
Mon 04:51:38 PM 38.0360 -86.1590 265° West 372 428 13,600 3,071 Climbing FlightAware ADS-B
Mon 04:52:25 PM 38.0300 -86.2650 266° West 388 447 16,200 3,225 Climbing FlightAware ADS-B
Mon 04:52:58 PM 38.0250 -86.3380 265° West 399 459 17,900 2,965 Climbing FlightAware ADS-B
Mon 04:53:50 PM 38.0170 -86.4600 265° West 411 473 20,400 2,939 Climbing FlightAware ADS-B
Mon 04:54:36 PM 38.0100 -86.5770 266° West 418 481 22,700 2,675 Climbing FlightAware ADS-B
Mon 04:55:13 PM 38.0040 -86.6720 265° West 431 496 24,100 2,188 Climbing FlightAware ADS-B
Mon 04:56:01 PM 37.9960 -86.7930 265° West 446 513 25,800 2,182 Climbing FlightAware ADS-B
Mon 04:56:41 PM 37.9890 -86.9010 265° West 454 522 27,300 2,096 Climbing FlightAware ADS-B
Mon 04:57:24 PM 37.9810 -87.0140 265° West 464 534 28,700 2,302 Climbing FlightAware ADS-B
Mon 04:58:07 PM 37.9730 -87.1320 265° West 458 527 30,600 2,500 Climbing FlightAware ADS-B
Mon 04:58:48 PM 37.9660 -87.2380 265° West 453 521 32,200 1,674 Climbing FlightAware ADS-B
Mon 04:59:33 PM 37.9580 -87.3600 265° West 466 536 33,000 786 Climbing FlightAware ADS-B
Mon 05:00:12 PM 37.9430 -87.4660 260° West 473 544 33,300 1,663 Climbing FlightAware ADS-B
Mon 05:00:56 PM 37.9190 -87.5820 255° West 455 524 35,300 1,929 Climbing FlightAware ADS-B
Mon 05:01:36 PM 37.8980 -87.6860 256° West 457 526 36,000 553 Climbing FlightAware ADS-B
Mon 05:02:12 PM 37.8860 -87.7790 261° West 455 524 36,000  Level FlightAware ADS-B
Mon 05:03:01 PM 37.8740 -87.9110 263° West 455 524 36,000  Level FlightAware ADS-B
Mon 05:03:38 PM 37.8670 -88.0090 265° West 454 522 36,000  Level FlightAware ADS-B
Mon 05:04:08 PM 37.8610 -88.0890 265° West 453 521 36,000  Level FlightAware ADS-B
Mon 05:04:51 PM 37.8530 -88.2040 265° West 453 521 36,000  Level FlightAware ADS-B
Mon 05:05:36 PM 37.8440 -88.3210 264° West 453 521 36,000  Level FlightAware ADS-B
Mon 05:06:14 PM 37.8370 -88.4230 265° West 453 521 36,000  Level FlightAware ADS-B
Mon 05:07:00 PM 37.8270 -88.5440 264° West 454 522 36,000  Level FlightAware ADS-B
Mon 05:07:42 PM 37.8190 -88.6580 265° West 455 524 36,000  Level FlightAware ADS-B
Mon 05:08:22 PM 37.8100 -88.7630 264° West 456 525 36,000  Level FlightAware ADS-B
Mon 05:09:03 PM 37.8020 -88.8710 265° West 457 526 36,000  Level FlightAware ADS-B
Mon 05:09:46 PM 37.7930 -88.9820 264° West 457 526 36,000  Level FlightAware ADS-B
Mon 05:10:30 PM 37.7830 -89.1020 264° West 459 528 36,000  Level FlightAware ADS-B
Mon 05:11:24 PM 37.7710 -89.2430 264° West 458 527 36,000  Level FlightAware ADS-B
Mon 05:12:04 PM 37.7620 -89.3500 264° West 458 527 36,000  Level FlightAware ADS-B
Mon 05:12:45 PM 37.7530 -89.4580 264° West 458 527 36,000  Level FlightAware ADS-B
Mon 05:13:43 PM 37.7390 -89.6160 264° West 460 529 36,000  Level FlightAware ADS-B
Mon 05:14:22 PM 37.7320 -89.7050 264° West 460 529 36,000  Level FlightAware ADS-B
Mon 05:15:10 PM 37.7230 -89.8140 264° West 460 529 36,000  Level FlightAware ADS-B
Mon 05:15:46 PM 37.7160 -89.8960 264° West 460 529 36,000  Level FlightAware ADS-B
Mon 05:16:35 PM 37.7070 -90.0080 264° West 460 529 36,000  Level FlightAware ADS-B
Mon 05:17:11 PM 37.7000 -90.0900 264° West 460 529 36,000  Level FlightAware ADS-B
Mon 05:18:00 PM 37.6910 -90.2010 264° West 460 529 36,000  Level FlightAware ADS-B
Mon 05:18:40 PM 37.6830 -90.2920 264° West 460 529 36,000  Level FlightAware ADS-B
Mon 05:19:16 PM 37.6760 -90.3740 264° West 460 529 36,000  Level FlightAware ADS-B
Mon 05:20:04 PM 37.6670 -90.4830 264° West 460 529 36,000  Level FlightAware ADS-B
Mon 05:20:40 PM 37.6600 -90.5650 264° West 460 529 36,000  Level FlightAware ADS-B
Mon 05:21:29 PM 37.6510 -90.6760 264° West 460 529 36,000  Level FlightAware ADS-B
Mon 05:22:05 PM 37.6440 -90.7580 264° West 460 529 36,000  Level FlightAware ADS-B
Mon 05:22:53 PM 37.6350 -90.8670 264° West 460 529 36,000  Level FlightAware ADS-B
Mon 05:23:29 PM 37.6280 -90.9490 264° West 460 529 36,000 1,250 Level FlightAware ADS-B
Mon 05:24:05 PM 37.5820 -91.2900 260° West 460 529 37,500 1,463 Climbing FlightAware ADS-B
Mon 05:24:51 PM 37.5690 -91.4100 262° West 463 533 38,000 361 Climbing FlightAware ADS-B
Mon 05:25:28 PM 37.5600 -91.4940 262° West 463 533 38,000  Level FlightAware ADS-B
Mon 05:26:17 PM 37.5480 -91.6050 262° West 463 533 38,000  Level FlightAware ADS-B
Mon 05:26:50 PM 37.5370 -91.7180 263° West 461 531 38,000  Level FlightAware ADS-B
Mon 05:27:37 PM 37.5230 -91.8560 263° West 460 529 38,000  Level FlightAware ADS-B
Mon 05:28:13 PM 37.5130 -91.9510 262° West 459 528 38,000  Level FlightAware ADS-B
Mon 05:28:57 PM 37.5000 -92.0690 262° West 457 526 38,000  Level FlightAware ADS-B
Mon 05:29:35 PM 37.4890 -92.1690 262° West 457 526 38,000  Level FlightAware ADS-B
Mon 05:30:14 PM 37.4780 -92.2700 262° West 456 525 38,000  Level FlightAware ADS-B
Mon 05:31:01 PM 37.4640 -92.3940 262° West 455 524 38,000  Level FlightAware ADS-B
Mon 05:31:41 PM 37.4530 -92.4980 262° West 455 524 38,000  Level FlightAware ADS-B
Mon 05:32:25 PM 37.4400 -92.6150 262° West 454 522 38,000  Level FlightAware ADS-B
Mon 05:33:05 PM 37.4280 -92.7200 262° West 454 522 38,000  Level FlightAware ADS-B
Mon 05:33:39 PM 37.4170 -92.8080 261° West 454 522 38,000  Level FlightAware ADS-B
Mon 05:34:22 PM 37.4050 -92.9200 262° West 455 524 38,000  Level FlightAware ADS-B
Mon 05:35:07 PM 37.3910 -93.0400 262° West 455 524 38,000  Level FlightAware ADS-B
Mon 05:35:41 PM 37.3800 -93.1300 261° West 455 524 38,000  Level FlightAware ADS-B
Mon 05:36:21 PM 37.3680 -93.2330 262° West 455 524 38,000  Level FlightAware ADS-B
Mon 05:37:05 PM 37.3550 -93.3460 262° West 455 524 38,000  Level FlightAware ADS-B
Mon 05:37:45 PM 37.3390 -93.4540 259° West 456 525 38,000  Level FlightAware ADS-B
Mon 05:38:29 PM 37.3220 -93.5670 259° West 456 525 38,000  Level FlightAware ADS-B
Mon 05:39:09 PM 37.3070 -93.6720 260° West 457 526 38,000  Level FlightAware ADS-B
Mon 05:39:55 PM 37.2900 -93.7890 260° West 457 526 38,000  Level FlightAware ADS-B
Mon 05:40:35 PM 37.2750 -93.8930 260° West 456 525 38,000  Level FlightAware ADS-B
Mon 05:41:19 PM 37.2590 -94.0020 260° West 456 525 38,000  Level FlightAware ADS-B
Mon 05:42:00 PM 37.2420 -94.1170 260° West 456 525 38,000  Level FlightAware ADS-B
Mon 05:42:42 PM 37.2260 -94.2240 259° West 455 524 38,000  Level FlightAware ADS-B
Mon 05:43:22 PM 37.2110 -94.3270 260° West 455 524 38,000  Level FlightAware ADS-B
Mon 05:44:08 PM 37.1920 -94.4500 259° West 455 524 38,000  Level FlightAware ADS-B
Mon 05:44:39 PM 37.1800 -94.5280 259° West 456 525 38,000  Level FlightAware ADS-B
Mon 05:45:24 PM 37.1620 -94.6450 259° West 455 524 38,000  Level FlightAware ADS-B
Mon 05:46:04 PM 37.1460 -94.7510 259° West 456 525 38,000  Level FlightAware ADS-B
Mon 05:46:48 PM 37.1280 -94.8620 259° West 456 525 38,000  Level FlightAware ADS-B
Mon 05:47:31 PM 37.1110 -94.9730 259° West 455 524 38,000  Level FlightAware ADS-B
Mon 05:48:12 PM 37.0940 -95.0810 259° West 455 524 38,000  Level FlightAware ADS-B
Mon 05:48:52 PM 37.0780 -95.1820 259° West 454 522 38,000  Level FlightAware ADS-B
Mon 05:49:36 PM 37.0600 -95.2970 259° West 453 521 38,000  Level FlightAware ADS-B
Mon 05:50:15 PM 37.0440 -95.3960 259° West 452 520 38,000  Level FlightAware ADS-B
Mon 05:50:57 PM 37.0270 -95.5020 259° West 452 520 38,000  Level FlightAware ADS-B
Mon 05:51:41 PM 37.0080 -95.6170 258° West 452 520 38,000  Level FlightAware ADS-B
Mon 05:52:23 PM 36.9910 -95.7260 259° West 453 521 38,000  Level FlightAware ADS-B
Mon 05:53:05 PM 36.9720 -95.8360 258° West 451 519 38,000  Level FlightAware ADS-B
Mon 05:53:47 PM 36.9550 -95.9430 259° West 451 519 38,000  Level FlightAware ADS-B
Mon 05:54:31 PM 36.9360 -96.0540 258° West 451 519 38,000  Level FlightAware ADS-B
Mon 05:55:13 PM 36.9180 -96.1660 259° West 450 518 38,000  Level FlightAware ADS-B
Mon 05:55:53 PM 36.9010 -96.2660 258° West 450 518 38,000  Level FlightAware ADS-B
Mon 05:56:29 PM 36.8850 -96.3570 258° West 450 518 38,000  Level FlightAware ADS-B
Mon 05:57:08 PM 36.8690 -96.4560 259° West 451 519 38,000  Level FlightAware ADS-B
Mon 05:57:47 PM 36.8510 -96.5600 258° West 452 520 38,000  Level FlightAware ADS-B
Mon 05:58:27 PM 36.8340 -96.6590 258° West 452 520 38,000  Level FlightAware ADS-B
Mon 05:59:11 PM 36.8150 -96.7710 258° West 453 521 38,000  Level FlightAware ADS-B
Mon 05:59:47 PM 36.7990 -96.8630 258° West 452 520 38,000  Level FlightAware ADS-B
Mon 06:00:27 PM 36.7820 -96.9590 258° West 452 520 38,000  Level FlightAware ADS-B
Mon 06:01:08 PM 36.7640 -97.0540 257° West 452 520 38,000  Level FlightAware ADS-B
Mon 06:02:09 PM 36.7370 -97.2240 259° West 451 519 38,000  Level FlightAware ADS-B
Mon 06:02:51 PM 36.7230 -97.3330 261° West 452 520 38,000  Level FlightAware ADS-B
Mon 06:03:35 PM 36.7080 -97.4450 261° West 452 520 38,000  Level FlightAware ADS-B
Mon 06:04:15 PM 36.6930 -97.5500 260° West 452 520 38,000  Level FlightAware ADS-B
Mon 06:04:59 PM 36.6770 -97.6620 260° West 451 519 38,000  Level FlightAware ADS-B
Mon 06:05:41 PM 36.6620 -97.7690 260° West 450 518 38,000  Level FlightAware ADS-B
Mon 06:06:21 PM 36.6470 -97.8730 260° West 449 517 38,000  Level FlightAware ADS-B
Mon 06:07:05 PM 36.6320 -97.9810 260° West 448 516 38,000  Level FlightAware ADS-B
Mon 06:07:45 PM 36.6170 -98.0840 260° West 449 517 38,000  Level FlightAware ADS-B
Mon 06:08:31 PM 36.6000 -98.2010 260° West 447 514 38,000  Level FlightAware ADS-B
Mon 06:09:11 PM 36.5850 -98.3040 260° West 447 514 38,000  Level FlightAware ADS-B
Mon 06:09:51 PM 36.5710 -98.4010 260° West 445 512 38,000  Level FlightAware ADS-B
Mon 06:10:45 PM 36.5520 -98.5260 259° West 445 512 38,000  Level FlightAware ADS-B
Mon 06:11:23 PM 36.5360 -98.6340 260° West 444 511 38,000  Level FlightAware ADS-B
Mon 06:12:04 PM 36.5230 -98.7180 259° West 444 511 38,000  Level FlightAware ADS-B
Mon 06:12:40 PM 36.5110 -98.7950 259° West 444 511 38,000  Level FlightAware ADS-B
Mon 06:13:16 PM 36.4990 -98.8710 259° West 444 511 38,000  Level FlightAware ADS-B
Mon 06:14:04 PM 36.4830 -98.9740 259° West 444 511 38,000  Level FlightAware ADS-B
Mon 06:14:40 PM 36.4710 -99.0500 259° West 444 511 38,000  Level FlightAware ADS-B
Mon 06:15:17 PM 36.4590 -99.1290 259° West 444 511 38,000  Level FlightAware ADS-B
Mon 06:16:49 PM 36.4280 -99.3250 259° West 444 511 38,000  Level FlightAware ADS-B
Mon 06:17:25 PM 36.4160 -99.4020 259° West 444 511 38,000  Level FlightAware ADS-B
Mon 06:18:40 PM 36.3910 -99.5620 259° West 444 511 38,000  Level FlightAware ADS-B
Mon 06:19:16 PM 36.3790 -99.6380 259° West 444 511 38,000  Level FlightAware ADS-B
Mon 06:19:55 PM 36.3660 -99.7210 259° West 444 511 38,000  Level FlightAware ADS-B
Mon 06:20:31 PM 36.3540 -99.7980 259° West 444 511 38,000  Level FlightAware ADS-B
Mon 06:21:19 PM 36.3380 -99.9000 259° West 444 511 38,000  Level FlightAware ADS-B
Mon 06:22:13 PM 36.3003 -100.2661 259° West 450 518 38,000  Level Kansas City Center
Mon 06:23:15 PM 36.2844 -100.4200 263° West 451 519 38,000  Level Kansas City Center
Mon 06:24:17 PM 36.2672 -100.5731 262° West 449 517 38,000  Level Kansas City Center
Mon 06:25:19 PM 36.2475 -100.7378 262° West 452 520 38,000  Level Kansas City Center
Mon 06:26:21 PM 36.2300 -100.8903 262° West 451 519 38,000  Level Kansas City Center
Mon 06:27:23 PM 36.2122 -101.0444 262° West 453 521 38,000  Level Kansas City Center
Mon 06:28:25 PM 36.1947 -101.1986 262° West 454 522 38,000  Level Kansas City Center
Mon 06:29:27 PM 36.1722 -101.3822 261° West 453 521 38,000  Level Kansas City Center
Mon 06:30:29 PM 36.1547 -101.5358 262° West 454 522 38,000  Level Kansas City Center
Mon 06:31:30 PM 36.1353 -101.6900 261° West 456 525 38,000  Level Kansas City Center
Mon 06:32:32 PM 36.1164 -101.8417 261° West 452 520 38,000  Level Kansas City Center
Mon 06:33:34 PM 36.0972 -101.9961 261° West 454 522 38,000  Level Kansas City Center
Mon 06:34:55 PM 36.0697 -102.2106 261° West 455 524 38,000  Level Albuquerque Center
Mon 06:35:57 PM 36.0511 -102.3633 261° West 454 522 38,000  Level Albuquerque Center
Mon 06:36:58 PM 36.0306 -102.5167 261° West 454 522 38,000  Level Albuquerque Center
Mon 06:38:00 PM 36.0067 -102.7000 261° West 455 524 38,000  Level Albuquerque Center
Mon 06:39:01 PM 35.9856 -102.8517 260° West 452 520 38,000  Level Albuquerque Center
Mon 06:40:03 PM 35.9656 -103.0089 261° West 454 522 38,000  Level Albuquerque Center
Mon 06:41:04 PM 35.9450 -103.1631 261° West 453 521 38,000  Level Albuquerque Center
Mon 06:42:06 PM 35.9239 -103.3172 260° West 454 522 38,000  Level Albuquerque Center
Mon 06:43:07 PM 35.9014 -103.4719 260° West 455 524 38,000  Level Albuquerque Center
Mon 06:44:09 PM 35.8808 -103.6264 261° West 455 524 38,000  Level Albuquerque Center
Mon 06:45:10 PM 35.8586 -103.7808 260° West 456 525 38,000  Level Albuquerque Center
Mon 06:46:11 PM 35.8361 -103.9350 260° West 456 525 38,000  Level Albuquerque Center
Mon 06:47:13 PM 35.8114 -104.1158 260° West 457 526 38,000  Level Albuquerque Center
Mon 06:48:14 PM 35.7881 -104.2694 259° West 456 525 38,000  Level Albuquerque Center
Mon 06:49:16 PM 35.7658 -104.4236 260° West 456 525 38,000  Level Albuquerque Center
Mon 06:50:17 PM 35.7422 -104.5769 259° West 455 524 38,000  Level Albuquerque Center
Mon 06:51:18 PM 35.7192 -104.7303 260° West 455 524 38,000  Level Albuquerque Center
Mon 06:52:20 PM 35.6961 -104.8831 260° West 454 522 38,000  Level Albuquerque Center
Mon 06:58:16 PM 35.5530 -105.7980 260° West 452 520 38,000  Level FlightAware ADS-B
Mon 06:58:56 PM 35.5370 -105.9010 259° West 452 520 38,000 -146 Level FlightAware ADS-B
Mon 06:59:38 PM 35.5200 -106.0050 259° West 450 518 37,800 -732 Descending FlightAware ADS-B
Mon 07:00:18 PM 35.5040 -106.1070 259° West 454 522 37,000 -1,244 Descending FlightAware ADS-B
Mon 07:01:00 PM 35.4860 -106.2120 258° West 454 522 36,100 -698 Descending FlightAware ADS-B
Mon 07:01:44 PM 35.4680 -106.3230 259° West 449 517 36,000 -70 Descending FlightAware ADS-B
Mon 07:02:26 PM 35.4510 -106.4280 259° West 450 518 36,000  Level FlightAware ADS-B
Mon 07:03:08 PM 35.4330 -106.5340 258° West 447 514 36,000  Level FlightAware ADS-B
Mon 07:03:44 PM 35.4180 -106.6240 258° West 448 516 36,000  Level FlightAware ADS-B
Mon 07:04:26 PM 35.4010 -106.7280 259° West 448 516 36,000  Level FlightAware ADS-B
Mon 07:05:02 PM 35.3860 -106.8170 258° West 447 514 36,000  Level FlightAware ADS-B
Mon 07:05:42 PM 35.3690 -106.9170 258° West 448 516 36,000  Level FlightAware ADS-B
Mon 07:06:26 PM 35.3500 -107.0250 258° West 448 516 36,000  Level FlightAware ADS-B
Mon 07:07:06 PM 35.3330 -107.1250 258° West 450 518 36,000  Level FlightAware ADS-B
Mon 07:07:42 PM 35.3170 -107.2160 258° West 453 521 36,000  Level FlightAware ADS-B
Mon 07:08:36 PM 35.2950 -107.3480 258° West 453 521 36,000  Level FlightAware ADS-B
Mon 07:09:18 PM 35.2760 -107.4540 258° West 455 524 36,000  Level FlightAware ADS-B
Mon 07:10:02 PM 35.2580 -107.5520 257° West 455 524 36,000  Level FlightAware ADS-B
Mon 07:10:38 PM 35.2440 -107.6280 257° West 455 524 36,000  Level FlightAware ADS-B
Mon 07:11:22 PM 35.2260 -107.7220 257° West 455 524 36,000  Level FlightAware ADS-B
Mon 07:12:00 PM 35.2110 -107.8030 257° West 455 524 36,000  Level FlightAware ADS-B
Mon 07:12:43 PM 35.1840 -107.9710 259° West 455 524 36,000  Level FlightAware ADS-B
Mon 07:13:24 PM 35.1660 -108.0760 258° West 455 524 36,000  Level FlightAware ADS-B
Mon 07:14:34 PM 35.1380 -108.2250 257° West 454 522 36,000  Level FlightAware ADS-B
Mon 07:15:22 PM 35.1180 -108.3270 257° West 454 522 36,000  Level FlightAware ADS-B
Mon 07:15:58 PM 35.1040 -108.4040 257° West 454 522 36,000  Level FlightAware ADS-B
Mon 07:16:46 PM 35.0850 -108.5060 257° West 454 522 36,000  Level FlightAware ADS-B
Mon 07:17:22 PM 35.0700 -108.5820 256° West 454 522 36,000  Level FlightAware ADS-B
Mon 07:18:12 PM 35.0500 -108.6890 257° West 454 522 36,000 -1,333 Level FlightAware ADS-B
Mon 07:18:52 PM 34.9890 -108.8820 249° West 447 514 34,000 -1,429 Descending FlightAware ADS-B
Mon 07:19:36 PM 34.9590 -108.9870 251° West 451 519 34,000  Level FlightAware ADS-B
Mon 07:20:13 PM 34.9360 -109.0650 250° West 452 520 34,000  Level FlightAware ADS-B
Mon 07:21:00 PM 34.9010 -109.1870 251° West 451 519 34,000  Level FlightAware ADS-B
Mon 07:21:42 PM 34.8720 -109.2890 251° West 452 520 34,000  Level FlightAware ADS-B
Mon 07:22:22 PM 34.8440 -109.3860 251° West 454 522 34,000  Level FlightAware ADS-B
Mon 07:23:06 PM 34.8130 -109.4950 251° West 456 525 34,000  Level FlightAware ADS-B
Mon 07:23:46 PM 34.7850 -109.5900 250° West 458 527 34,000  Level FlightAware ADS-B
Mon 07:24:28 PM 34.7550 -109.6940 251° West 460 529 34,000  Level FlightAware ADS-B
Mon 07:25:09 PM 34.7260 -109.7920 250° West 461 531 34,000  Level FlightAware ADS-B
Mon 07:25:53 PM 34.6900 -109.8990 248° West 459 528 34,000  Level FlightAware ADS-B
Mon 07:26:29 PM 34.6520 -109.9770 239° Southwest 456 525 34,000 -237 Level FlightAware ADS-B
Mon 07:27:09 PM 34.6060 -110.0640 237° Southwest 446 513 33,700 -786 Descending FlightAware ADS-B
Mon 07:27:53 PM 34.5570 -110.1570 237° Southwest 448 516 32,900 -1,154 Descending FlightAware ADS-B
Mon 07:28:27 PM 34.5190 -110.2280 237° Southwest 447 514 32,200 -1,263 Descending FlightAware ADS-B
Mon 07:29:09 PM 34.4720 -110.3170 237° Southwest 450 518 31,300 -1,326 Descending FlightAware ADS-B
Mon 07:29:53 PM 34.4220 -110.4100 237° Southwest 447 514 30,300 -1,814 Descending FlightAware ADS-B
Mon 07:30:35 PM 34.3740 -110.4990 237° Southwest 444 511 28,700 -2,341 Descending FlightAware ADS-B
Mon 07:31:15 PM 34.3300 -110.5810 237° Southwest 443 510 27,100 -1,952 Descending FlightAware ADS-B
Mon 07:31:58 PM 34.2820 -110.6700 237° Southwest 435 501 26,000 -923 Descending FlightAware ADS-B
Mon 07:32:33 PM 34.2440 -110.7390 236° Southwest 432 497 25,900 -1,037 Descending FlightAware ADS-B
Mon 07:33:19 PM 34.1930 -110.8320 236° Southwest 406 467 24,600 -2,374 Descending FlightAware ADS-B
Mon 07:34:04 PM 34.1480 -110.9180 238° Southwest 414 476 22,300 -2,815 Descending FlightAware ADS-B
Mon 07:34:40 PM 34.1110 -110.9850 236° Southwest 394 453 20,800 -2,643 Descending FlightAware ADS-B
Mon 07:35:28 PM 34.0710 -111.0570 236° Southwest 388 447 18,600 -2,651 Descending FlightAware ADS-B
Mon 07:36:06 PM 34.0340 -111.1260 237° Southwest 373 429 17,000 -2,643 Descending FlightAware ADS-B
Mon 07:36:52 PM 33.9890 -111.2080 237° Southwest 371 427 14,900 -2,444 Descending FlightAware ADS-B
Mon 07:37:27 PM 33.9570 -111.2660 236° Southwest 370 426 13,700 -1,735 Descending FlightAware ADS-B
Mon 07:38:15 PM 33.9150 -111.3420 236° Southwest 357 411 12,500 -1,047 Descending FlightAware ADS-B
Mon 07:38:53 PM 33.8790 -111.4070 236° Southwest 324 373 12,200 -889 Descending FlightAware ADS-B
Mon 07:39:36 PM 33.8460 -111.4680 237° Southwest 296 341 11,300 -1,520 Descending FlightAware ADS-B
Mon 07:40:08 PM 33.8120 -111.5070 224° Southwest 298 343 10,300 -1,698 Descending FlightAware ADS-B
Mon 07:40:29 PM 33.7880 -111.5250 212° Southwest 297 342 9,800 -1,256 Descending FlightAware ADS-B
Mon 07:40:51 PM 33.7640 -111.5420 210° Southwest 294 338 9,400 -1,053 Descending FlightAware ADS-B
Mon 07:41:26 PM 33.7220 -111.5730 212° Southwest 292 336 8,800 -1,116 Descending FlightAware ADS-B
Mon 07:41:34 PM 33.7130 -111.5780 205° Southwest 292 336 8,600 -1,091 Descending FlightAware ADS-B
Mon 07:41:59 PM 33.6800 -111.5930 201° Southwest 294 338 8,200 -407 Descending FlightAware ADS-B
Mon 07:42:33 PM 33.6390 -111.6210 210° Southwest 290 334 8,200 -295 Level FlightAware ADS-B
Mon 07:43:00 PM 33.6130 -111.6430 215° Southwest 278 320 7,900 -1,412 Descending FlightAware ADS-B
Mon 07:43:24 PM 33.5860 -111.6670 217° Southwest 281 323 7,000 -1,966 Descending FlightAware ADS-B
Mon 07:43:58 PM 33.5520 -111.6980 217° Southwest 274 315 6,000 -1,607 Descending FlightAware ADS-B
Mon 07:44:20 PM 33.5300 -111.7200 220° Southwest 276 318 5,500 -1,200 Descending FlightAware ADS-B
Mon 07:44:33 PM 33.5170 -111.7320 218° Southwest 272 313 5,300 -429 Descending FlightAware ADS-B
Mon 07:45:02 PM 33.4890 -111.7570 217° Southwest 239 275 5,200 -300 Descending FlightAware ADS-B
Mon 07:45:33 PM 33.4660 -111.7790 219° Southwest 211 243 5,000 -682 Descending FlightAware ADS-B
Mon 07:45:46 PM 33.4560 -111.7880 217° Southwest 206 237 4,700 -1,263 Descending FlightAware ADS-B
Mon 07:46:11 PM 33.4360 -111.8060 217° Southwest 202 232 4,200 -857 Descending FlightAware ADS-B
Mon 07:46:28 PM 33.4290 -111.8210 241° Southwest 184 212 4,100 -774 Descending FlightAware ADS-B
Mon 07:46:42 PM 33.4290 -111.8340 270° West 189 217 3,800 -1,149 Descending FlightAware ADS-B
Mon 07:47:15 PM 33.4280 -111.8780 268° West 185 213 3,200 -1,053 Descending FlightAware ADS-B
Mon 07:47:39 PM 33.4290 -111.9020 273° West 176 203 2,800 -923 Descending FlightAware ADS-B
Mon 07:48:07 PM 33.4290 -111.9280 270° West 157 181 2,400 -724 Descending FlightAware ADS-B
Mon 07:48:37 PM 33.4290 -111.9530 270° West 142 163 2,100 -706 Descending FlightAware ADS-B
Mon 07:48:58 PM 33.4290 -111.9700 270° West 146 168 1,800 -462 Descending FlightAware ADS-B
Mon 07:49:55 PM 33.4290 -112.0120 270° West 149 171 1,500 -316 Descending FlightAware ADS-B
Mon 07:50:23 PM 33.4290 -112.0240 270° West 38 44 -3,214 Descending FlightAware ADS-B
Mon 07:50:48 PM 33.4290 -112.0280 270° West 38 44  Level FlightAware ADS-B
Mon 07:52:27 PM 33.4280 -112.0180 97° East 34 39  Level FlightAware ADS-B
Mon 07:52:43 PM 33.4270 -112.0170 140° Southeast 22 25  Level FlightAware ADS-B
Mon 07:57:00 PM 33.4333 -112.0000 90° East  Level FlightAware Approximate

Login

Don't have an account? Register now (free) for customized features, flight alerts, and more!